Time;durP1;ratioP1;P1;durP2;ratioP2;P2;SDS_P1;SDS_P2;PMS_P1;PMS_P2;Temp;Humidity;BMP_temperature;BMP_pressure;BME280_temperature;BME280_humidity;BME280_pressure;Samples;Min_cycle;Max_cycle;Signal;HPM_P1;HPM_P2
2022/01/19 00:00:16;;;;;;;15.60;10.70;;;;;;;5.26;59.16;98091.22;5064551;28;20598;-71
2022/01/19 00:02:42;;;;;;;15.23;9.90;;;;;;;5.25;58.81;98106.00;5070117;28;20293;-70
2022/01/19 00:05:09;;;;;;;13.47;10.47;;;;;;;5.22;58.86;98100.97;5071757;28;20427;-71
2022/01/19 00:07:35;;;;;;;15.93;10.90;;;;;;;5.19;59.23;98093.38;5059731;28;20564;-72
2022/01/19 00:10:04;;;;;;;17.50;11.40;;;;;;;5.12;59.17;98089.50;5072190;28;20428;-71
2022/01/19 00:12:31;;;;;;;18.23;10.57;;;;;;;5.13;59.17;98070.38;5068510;28;20206;-69
2022/01/19 00:14:57;;;;;;;14.10;10.67;;;;;;;5.08;59.35;98063.72;5071395;28;20421;-70
2022/01/19 00:17:22;;;;;;;17.73;11.13;;;;;;;4.53;61.52;98056.75;5071238;28;20776;-71
2022/01/19 00:19:48;;;;;;;16.03;11.03;;;;;;;4.33;61.81;98056.19;5037380;28;20334;-71
2022/01/19 00:22:13;;;;;;;17.03;10.70;;;;;;;3.95;63.05;98057.53;5068988;28;20203;-70
2022/01/19 00:24:40;;;;;;;18.63;11.37;;;;;;;4.19;63.06;98061.34;5072169;28;20178;-72
2022/01/19 00:27:06;;;;;;;15.70;10.93;;;;;;;4.27;61.97;98064.34;5072474;28;20228;-71
2022/01/19 00:29:31;;;;;;;22.30;12.33;;;;;;;3.84;63.41;98068.53;5058646;28;20440;-70
2022/01/19 00:31:57;;;;;;;17.27;11.23;;;;;;;3.92;63.43;98073.28;5070583;28;20210;-70
2022/01/19 00:34:22;;;;;;;18.20;12.03;;;;;;;4.06;63.09;98084.59;5070733;28;20596;-72
2022/01/19 00:36:48;;;;;;;14.50;10.70;;;;;;;3.74;64.06;98095.91;5063186;28;20183;-69
2022/01/19 00:39:13;;;;;;;15.20;10.77;;;;;;;3.78;63.61;98105.16;5071568;28;20206;-70
2022/01/19 00:41:39;;;;;;;15.67;10.57;;;;;;;3.70;63.74;98094.41;5068715;28;20202;-71
2022/01/19 00:44:05;;;;;;;17.53;11.50;;;;;;;3.76;63.55;98094.06;5070616;28;20178;-71
2022/01/19 00:46:30;;;;;;;19.40;11.30;;;;;;;3.98;62.59;98098.03;5068096;28;20209;-70
2022/01/19 00:48:56;;;;;;;17.37;11.50;;;;;;;3.92;63.13;98098.34;5066915;28;20226;-71
2022/01/19 00:51:21;;;;;;;16.63;10.93;;;;;;;3.87;62.81;98096.03;5072339;28;20285;-70
2022/01/19 00:53:47;;;;;;;15.30;11.03;;;;;;;3.78;63.63;98097.38;5070306;28;20186;-72
2022/01/19 00:56:13;;;;;;;22.47;12.90;;;;;;;3.68;63.64;98091.91;5071526;28;20593;-71
2022/01/19 00:58:38;;;;;;;21.00;12.50;;;;;;;3.51;64.37;98090.28;5071412;28;20202;-70
2022/01/19 01:01:04;;;;;;;19.30;12.30;;;;;;;3.75;63.10;98092.41;5069634;28;20183;-70
2022/01/19 01:03:29;;;;;;;16.87;12.30;;;;;;;3.73;63.14;98099.44;5065049;28;20179;-72
2022/01/19 01:05:55;;;;;;;18.83;13.30;;;;;;;3.55;63.27;98096.13;5071613;28;20181;-71
2022/01/19 01:08:20;;;;;;;21.33;12.43;;;;;;;3.65;63.88;98092.09;5070132;28;20201;-71
2022/01/19 01:10:46;;;;;;;19.20;12.50;;;;;;;3.60;63.20;98098.44;5068184;28;20182;-70
2022/01/19 01:13:23;;;;;;;17.60;12.30;;;;;;;3.40;64.49;98094.38;5069257;28;20236;-72
2022/01/19 01:16:00;;;;;;;19.43;11.83;;;;;;;2.81;66.30;98089.78;5071349;28;20184;-71
2022/01/19 01:18:28;;;;;;;19.73;11.97;;;;;;;3.34;64.84;98087.78;5071218;28;20459;-71
2022/01/19 01:20:56;;;;;;;20.17;12.27;;;;;;;3.19;64.93;98089.47;5071014;28;20886;-71
2022/01/19 01:23:24;;;;;;;17.37;11.60;;;;;;;3.32;64.79;98076.66;5066852;28;20452;-71
2022/01/19 01:25:50;;;;;;;22.40;11.70;;;;;;;3.11;65.25;98065.72;5070944;28;20927;-72
2022/01/19 01:28:17;;;;;;;16.30;11.57;;;;;;;3.28;64.72;98057.00;5067121;28;20456;-71
2022/01/19 01:30:43;;;;;;;19.27;12.60;;;;;;;3.57;64.45;98050.22;5064518;28;20259;-71
2022/01/19 01:33:09;;;;;;;19.83;11.27;;;;;;;3.71;64.05;98044.22;5069719;28;20435;-71
2022/01/19 01:35:35;;;;;;;18.17;11.17;;;;;;;3.82;63.51;98044.44;5071144;28;20425;-69
2022/01/19 01:38:02;;;;;;;16.30;10.27;;;;;;;3.88;63.27;98045.84;5054141;28;20445;-70
2022/01/19 01:40:31;;;;;;;14.30;11.77;;;;;;;3.77;63.10;98058.59;5070856;28;20428;-73
2022/01/19 01:42:58;;;;;;;21.17;11.10;;;;;;;3.73;63.36;98063.13;5067000;28;20526;-72
2022/01/19 01:45:28;;;;;;;17.50;11.53;;;;;;;3.76;63.28;98072.47;5066605;28;20520;-71
2022/01/19 01:48:06;;;;;;;18.00;12.20;;;;;;;3.70;63.07;98065.88;5063665;28;20486;-71
2022/01/19 01:53:26;;;;;;;19.37;11.50;;;;;;;3.59;64.43;98066.50;5075006;28;20424;-69
2022/01/19 01:55:54;;;;;;;22.57;11.63;;;;;;;3.87;63.59;98056.31;5075787;28;20451;-71
2022/01/19 01:58:19;;;;;;;16.63;11.40;;;;;;;3.93;62.77;98042.97;5074829;28;20460;-72
2022/01/19 02:00:45;;;;;;;14.80;10.63;;;;;;;4.10;63.16;98036.78;5074672;28;20503;-70
2022/01/19 02:03:12;;;;;;;16.50;11.37;;;;;;;4.13;62.63;98024.47;5067710;28;20209;-71
2022/01/19 02:05:48;;;;;;;13.63;10.30;;;;;;;4.19;62.53;98015.50;5074662;28;20210;-71
2022/01/19 02:08:21;;;;;;;20.67;11.53;;;;;;;4.13;62.29;98013.25;5057028;28;20485;-72
2022/01/19 02:11:07;;;;;;;17.30;11.30;;;;;;;4.13;62.55;98005.47;5056227;28;20443;-70
2022/01/19 02:16:51;;;;;;;20.07;12.17;;;;;;;4.13;63.02;98014.09;5074748;28;20428;-70
2022/01/19 02:22:02;;;;;;;15.20;10.20;;;;;;;4.33;61.98;97982.69;5069859;28;20456;-71
2022/01/19 02:24:41;;;;;;;16.00;10.70;;;;;;;4.36;61.63;97983.31;5068885;28;20433;-73
2022/01/19 02:28:53;;;;;;;17.63;10.80;;;;;;;4.40;61.82;97973.56;5070036;28;20426;-71
2022/01/19 02:40:32;;;;;;;20.30;12.07;;;;;;;4.32;60.98;97950.69;5054958;28;20479;-71
2022/01/19 02:50:58;;;;;;;20.17;11.00;;;;;;;4.37;60.77;97927.88;5066230;28;20456;-71
2022/01/19 02:53:24;;;;;;;21.17;10.10;;;;;;;4.11;61.24;97925.13;5075208;28;20421;-73
2022/01/19 02:55:49;;;;;;;19.13;10.83;;;;;;;4.16;60.94;97909.28;5078323;28;20178;-72
2022/01/19 02:58:18;;;;;;;17.97;9.97;;;;;;;4.02;61.34;97911.88;5072960;28;20210;-71
2022/01/19 03:09:02;;;;;;;14.03;8.63;;;;;;;4.09;61.67;97882.88;5044934;28;20851;-71
2022/01/19 03:11:28;;;;;;;14.43;10.23;;;;;;;3.91;60.88;97878.81;5070786;28;20470;-71
2022/01/19 03:13:54;;;;;;;18.53;10.63;;;;;;;3.93;61.47;97864.84;5074017;28;20429;-72
2022/01/19 03:16:21;;;;;;;17.60;10.87;;;;;;;3.75;61.59;97869.41;5064899;28;20542;-72
2022/01/19 03:18:47;;;;;;;18.07;10.87;;;;;;;3.82;61.37;97860.31;5072099;28;20264;-71
2022/01/19 03:21:12;;;;;;;14.40;9.60;;;;;;;3.80;62.18;97846.59;5072204;28;20436;-73
2022/01/19 03:23:38;;;;;;;17.60;10.60;;;;;;;3.94;61.69;97857.88;5064389;28;20423;-71
2022/01/19 03:26:06;;;;;;;15.00;10.40;;;;;;;3.94;61.81;97853.53;5070939;28;20209;-72
2022/01/19 03:28:33;;;;;;;17.23;10.10;;;;;;;3.91;61.84;97845.94;5073884;28;20263;-72
2022/01/19 03:30:59;;;;;;;17.10;10.57;;;;;;;3.99;61.57;97845.47;5073360;28;20492;-72
2022/01/19 03:33:25;;;;;;;18.67;10.50;;;;;;;3.83;61.66;97851.59;5065933;28;20580;-71
2022/01/19 03:35:51;;;;;;;21.93;10.47;;;;;;;3.88;61.90;97845.31;5077556;28;20428;-72
2022/01/19 03:38:16;;;;;;;17.23;10.60;;;;;;;3.92;61.56;97850.22;5066235;28;20213;-72
2022/01/19 03:40:42;;;;;;;17.63;10.80;;;;;;;3.96;61.78;97846.50;5075445;28;20186;-71
2022/01/19 03:43:08;;;;;;;20.20;11.40;;;;;;;3.99;61.46;97845.47;5071313;28;20210;-72
2022/01/19 03:45:35;;;;;;;25.23;11.33;;;;;;;3.88;61.72;97833.16;5069193;28;20198;-71
2022/01/19 03:48:38;;;;;;;14.43;10.07;;;;;;;3.91;61.24;97837.31;5071576;28;20449;-72
2022/01/19 03:50:53;;;;;;;23.03;10.60;;;;;;;3.90;61.44;97826.13;5049099;28;20425;-71
2022/01/19 03:53:18;;;;;;;19.17;11.37;;;;;;;3.90;61.37;97825.31;5070875;28;22043;-70
2022/01/19 03:55:44;;;;;;;19.07;11.50;;;;;;;3.89;61.54;97816.66;5073061;28;20248;-71
2022/01/19 03:58:10;;;;;;;18.77;11.20;;;;;;;3.95;61.73;97828.44;5070654;28;20217;-72
2022/01/19 04:00:41;;;;;;;19.33;11.70;;;;;;;3.81;62.04;97826.69;5072071;28;20425;-71
2022/01/19 04:03:09;;;;;;;18.03;10.80;;;;;;;3.74;62.05;97826.25;5066237;28;20219;-71
2022/01/19 04:06:21;;;;;;;17.17;10.13;;;;;;;3.75;61.69;97824.47;5072578;28;20797;-70
2022/01/19 04:08:24;;;;;;;15.37;10.67;;;;;;;3.82;62.01;97821.41;5068942;28;20480;-71
2022/01/19 04:10:49;;;;;;;16.73;10.37;;;;;;;3.84;61.43;97819.56;5064332;28;20503;-71
2022/01/19 04:15:53;;;;;;;16.30;10.10;;;;;;;3.89;61.84;97819.25;5069039;28;20240;-71
2022/01/19 04:18:18;;;;;;;17.60;10.63;;;;;;;3.81;61.42;97816.31;5072742;28;22285;-71
2022/01/19 04:20:48;;;;;;;16.70;10.60;;;;;;;3.78;62.00;97822.50;5072529;28;20251;-71
2022/01/19 04:23:14;;;;;;;17.33;11.47;;;;;;;3.80;61.99;97818.06;5068178;28;20209;-71
2022/01/19 04:25:39;;;;;;;23.70;11.80;;;;;;;3.77;61.59;97815.69;5072606;28;20409;-71
2022/01/19 04:28:07;;;;;;;21.17;10.97;;;;;;;3.76;61.88;97814.03;5063851;28;20440;-72
2022/01/19 04:30:34;;;;;;;18.70;11.13;;;;;;;3.77;62.13;97814.84;5072355;28;20178;-71
2022/01/19 04:33:07;;;;;;;18.27;11.10;;;;;;;3.79;61.95;97819.00;5072079;28;20801;-72
2022/01/19 04:35:44;;;;;;;16.00;10.50;;;;;;;3.74;61.82;97808.09;5070543;28;20760;-71
2022/01/19 04:54:29;;;;;;;14.90;9.10;;;;;;;3.57;62.17;97779.75;5069837;28;20239;-71
2022/01/19 05:07:52;;;;;;;16.30;11.27;;;;;;;3.42;62.41;97746.06;5048433;28;20185;-72
2022/01/19 05:15:46;;;;;;;24.60;10.30;;;;;;;3.23;62.59;97747.22;5050842;28;20430;-71
2022/01/19 05:18:12;;;;;;;24.73;11.17;;;;;;;3.34;62.28;97750.91;5052713;28;20447;-72
2022/01/19 05:20:37;;;;;;;19.80;11.03;;;;;;;3.32;62.23;97752.75;5057625;28;20181;-71
2022/01/19 05:23:03;;;;;;;17.37;10.97;;;;;;;3.34;62.21;97743.94;5061978;28;20448;-71
2022/01/19 05:25:29;;;;;;;17.30;10.23;;;;;;;3.22;62.71;97736.94;5051918;28;20179;-72
2022/01/19 05:27:54;;;;;;;20.93;10.90;;;;;;;2.98;63.70;97736.66;5051416;28;20661;-72
2022/01/19 05:30:20;;;;;;;19.90;12.43;;;;;;;2.90;64.39;97727.56;5052492;28;20262;-72
2022/01/19 05:32:46;;;;;;;18.73;11.47;;;;;;;3.06;63.43;97718.91;5050043;28;20201;-71
2022/01/19 05:35:12;;;;;;;18.00;11.27;;;;;;;2.82;64.15;97714.25;5050858;28;20179;-72
2022/01/19 05:37:37;;;;;;;18.93;11.70;;;;;;;2.82;64.65;97721.22;5064249;28;20448;-72
2022/01/19 05:40:08;;;;;;;18.50;11.87;;;;;;;2.98;63.71;97709.00;5054047;28;20461;-70
2022/01/19 05:42:34;;;;;;;23.17;12.33;;;;;;;3.03;63.20;97700.94;5050713;28;20212;-71
2022/01/19 05:45:00;;;;;;;21.83;12.90;;;;;;;2.71;64.02;97704.53;5055032;28;20938;-68
2022/01/19 05:47:25;;;;;;;27.97;13.17;;;;;;;2.79;64.21;97693.72;5051819;28;20947;-71
2022/01/19 05:49:51;;;;;;;22.77;13.70;;;;;;;2.96;63.51;97689.31;5051415;28;20278;-73
2022/01/19 05:52:17;;;;;;;21.53;12.50;;;;;;;2.95;63.90;97687.63;5049819;28;20186;-70
2022/01/19 05:54:42;;;;;;;23.13;12.63;;;;;;;2.54;65.26;97690.00;5050817;28;20661;-71
2022/01/19 05:57:08;;;;;;;26.13;13.20;;;;;;;2.58;65.73;97685.50;5059812;28;20191;-70
2022/01/19 05:59:34;;;;;;;22.10;13.00;;;;;;;2.80;65.24;97682.44;5053057;28;20613;-73
2022/01/19 06:02:00;;;;;;;21.57;12.27;;;;;;;2.97;64.90;97694.38;5044768;28;20204;-71
2022/01/19 06:04:26;;;;;;;23.77;12.90;;;;;;;3.00;64.45;97683.03;5051704;28;20436;-70
2022/01/19 06:06:54;;;;;;;24.57;12.80;;;;;;;3.10;63.92;97694.50;5065190;28;20624;-71
2022/01/19 06:12:07;;;;;;;20.20;12.63;;;;;;;2.86;65.00;97695.03;5052551;28;20421;-71
2022/01/19 06:14:34;;;;;;;20.70;12.83;;;;;;;3.01;64.97;97690.69;5046704;28;20588;-72
2022/01/19 06:17:01;;;;;;;23.13;12.53;;;;;;;3.03;64.65;97685.41;5071719;28;20464;-69
2022/01/19 06:19:26;;;;;;;24.40;13.27;;;;;;;3.10;64.58;97691.03;5049419;28;20870;-72
2022/01/19 06:21:52;;;;;;;22.90;13.90;;;;;;;2.73;65.24;97683.75;5052944;28;20464;-71
2022/01/19 06:24:18;;;;;;;25.97;13.63;;;;;;;2.55;65.82;97686.50;5050898;28;20225;-71
2022/01/19 06:26:44;;;;;;;17.83;12.50;;;;;;;3.04;64.61;97687.91;5044174;28;20422;-71
2022/01/19 06:29:09;;;;;;;23.23;13.00;;;;;;;3.12;64.53;97686.59;5057642;28;20213;-72
2022/01/19 06:31:35;;;;;;;22.90;13.03;;;;;;;3.12;64.11;97684.00;5054356;28;20263;-72
2022/01/19 06:34:00;;;;;;;23.73;13.73;;;;;;;3.06;64.39;97677.47;5066446;28;20658;-70
2022/01/19 06:36:26;;;;;;;22.77;12.60;;;;;;;3.12;63.85;97684.00;5063511;28;20206;-71
2022/01/19 06:38:52;;;;;;;23.80;13.93;;;;;;;2.85;64.65;97690.78;5061616;28;20198;-70
2022/01/19 06:41:18;;;;;;;24.50;14.47;;;;;;;2.89;64.53;97691.44;5061391;28;20266;-72
2022/01/19 06:43:43;;;;;;;22.20;14.03;;;;;;;3.10;64.17;97691.91;5059638;28;20183;-72
2022/01/19 06:46:09;;;;;;;23.90;14.70;;;;;;;2.70;64.89;97681.34;5038132;28;20475;-70
2022/01/19 06:48:35;;;;;;;25.93;15.30;;;;;;;2.86;65.00;97689.00;5062504;28;20214;-71
2022/01/19 06:51:01;;;;;;;28.33;15.23;;;;;;;2.63;65.35;97687.81;5052943;28;20186;-72
2022/01/19 06:53:26;;;;;;;23.87;14.80;;;;;;;2.96;64.45;97673.78;5067429;28;20257;-71
2022/01/19 06:55:54;;;;;;;25.77;14.87;;;;;;;3.18;63.88;97674.13;5057949;28;20179;-71
2022/01/19 06:58:20;;;;;;;25.07;14.77;;;;;;;3.23;63.44;97677.28;5053350;28;20689;-71
2022/01/19 07:00:45;;;;;;;25.97;15.00;;;;;;;2.85;64.66;97677.00;5053163;28;20513;-71
2022/01/19 07:03:11;;;;;;;25.10;16.13;;;;;;;3.12;63.55;97678.84;5048808;28;20207;-71
2022/01/19 07:05:37;;;;;;;25.43;15.10;;;;;;;3.21;63.42;97673.94;5055807;28;20185;-72
2022/01/19 07:08:03;;;;;;;29.53;15.90;;;;;;;3.30;63.10;97674.28;5054015;28;20187;-71
2022/01/19 07:10:31;;;;;;;30.03;15.23;;;;;;;3.32;62.79;97680.19;5054566;28;20823;-70
2022/01/19 07:13:03;;;;;;;25.37;14.90;;;;;;;3.30;62.78;97676.88;5055177;28;20175;-69
2022/01/19 07:15:29;;;;;;;21.70;14.80;;;;;;;3.32;62.57;97670.69;5052140;28;20782;-72
2022/01/19 07:17:54;;;;;;;23.73;15.17;;;;;;;3.30;63.21;97674.28;5054755;28;20511;-71
2022/01/19 07:20:20;;;;;;;21.97;14.57;;;;;;;3.22;62.83;97675.59;5073563;28;20208;-71
2022/01/19 07:22:47;;;;;;;28.50;15.83;;;;;;;3.29;63.16;97670.88;5070610;28;20205;-71
2022/01/19 07:25:14;;;;;;;26.00;14.33;;;;;;;3.38;62.87;97669.47;5074285;28;20190;-72
2022/01/19 07:27:40;;;;;;;26.53;13.83;;;;;;;3.33;62.66;97663.72;5073948;28;20424;-70
2022/01/19 07:30:06;;;;;;;24.07;13.93;;;;;;;3.33;62.59;97661.13;5073042;28;20437;-71
2022/01/19 07:32:34;;;;;;;21.00;14.67;;;;;;;3.30;62.97;97661.31;5072779;28;20570;-71
2022/01/19 07:35:02;;;;;;;31.97;14.70;;;;;;;3.31;63.13;97660.41;5074040;28;20459;-70
2022/01/19 07:37:27;;;;;;;29.00;17.20;;;;;;;3.32;62.68;97660.31;5074128;28;20421;-70
2022/01/19 07:39:53;;;;;;;30.90;15.90;;;;;;;3.15;63.45;97658.75;5073030;28;20844;-70
2022/01/19 07:42:19;;;;;;;25.77;16.80;;;;;;;3.11;63.69;97659.88;5070795;28;20207;-71
2022/01/19 07:44:45;;;;;;;31.27;16.50;;;;;;;3.30;63.40;97651.81;5066448;28;20446;-71
2022/01/19 07:47:11;;;;;;;23.60;15.40;;;;;;;3.42;63.13;97665.75;5071048;28;20441;-70
2022/01/19 07:49:36;;;;;;;28.40;15.80;;;;;;;3.22;63.19;97657.47;5064818;28;20195;-70
2022/01/19 07:52:02;;;;;;;24.97;15.87;;;;;;;3.19;63.52;97656.81;5070806;28;20174;-70
2022/01/19 07:54:28;;;;;;;25.47;16.37;;;;;;;3.35;63.00;97654.09;5070851;28;20221;-69
2022/01/19 07:56:54;;;;;;;27.53;15.87;;;;;;;3.43;62.99;97651.03;5070413;28;20224;-70
2022/01/19 07:59:19;;;;;;;23.10;15.60;;;;;;;3.30;63.45;97645.78;5072830;28;20206;-70
2022/01/19 08:01:45;;;;;;;25.93;15.83;;;;;;;3.49;62.82;97641.13;5068203;28;20203;-71
2022/01/19 08:04:11;;;;;;;30.90;16.87;;;;;;;3.48;63.08;97644.63;5055609;28;20270;-71
2022/01/19 08:06:36;;;;;;;31.60;15.17;;;;;;;3.50;62.54;97637.59;5072314;28;20340;-71
2022/01/19 08:09:03;;;;;;;28.43;17.07;;;;;;;3.43;63.21;97633.72;5072849;28;20206;-71
2022/01/19 08:11:29;;;;;;;30.37;16.70;;;;;;;3.49;63.17;97630.75;5071917;28;20217;-70
2022/01/19 08:13:54;;;;;;;23.20;15.80;;;;;;;3.42;63.09;97639.81;5074048;28;20448;-71
2022/01/19 08:16:21;;;;;;;26.23;16.47;;;;;;;3.13;64.12;97645.09;5073174;28;20343;-70
2022/01/19 08:18:47;;;;;;;26.73;17.10;;;;;;;3.33;63.81;97637.81;5036147;28;20308;-71
2022/01/19 08:21:13;;;;;;;29.17;17.40;;;;;;;3.42;63.26;97634.63;5068884;28;20899;-71
2022/01/19 08:23:39;;;;;;;30.43;16.73;;;;;;;3.66;63.23;97627.06;5068680;28;20459;-71
2022/01/19 08:26:05;;;;;;;37.70;18.87;;;;;;;3.34;63.13;97622.16;5071340;28;20184;-70
2022/01/19 08:28:30;;;;;;;29.60;17.30;;;;;;;3.03;64.58;97629.28;5065077;28;20499;-70
2022/01/19 08:30:56;;;;;;;27.70;17.27;;;;;;;3.58;63.90;97624.16;5064408;28;20182;-73
2022/01/19 08:33:22;;;;;;;28.70;17.70;;;;;;;3.05;64.64;97634.34;5070257;28;20174;-70
2022/01/19 08:35:48;;;;;;;33.07;19.30;;;;;;;3.46;64.20;97627.53;5068299;28;20324;-72
2022/01/19 08:38:14;;;;;;;31.00;18.83;;;;;;;3.19;64.87;97630.94;5071962;28;20206;-71
2022/01/19 08:40:39;;;;;;;31.53;18.77;;;;;;;3.32;64.33;97628.38;5072025;28;20556;-71
2022/01/19 08:43:05;;;;;;;29.50;18.00;;;;;;;3.49;64.43;97624.72;5064680;28;20679;-71
2022/01/19 08:45:32;;;;;;;24.70;17.17;;;;;;;3.32;64.57;97630.97;5069408;28;20192;-71
2022/01/19 08:47:58;;;;;;;36.93;17.27;;;;;;;3.63;63.19;97626.44;5071998;28;20190;-70
2022/01/19 08:50:23;;;;;;;26.30;17.60;;;;;;;3.89;62.06;97631.72;5067605;28;20417;-69
2022/01/19 08:52:49;;;;;;;26.77;16.60;;;;;;;3.56;63.26;97630.34;5068161;28;20174;-71
2022/01/19 08:55:16;;;;;;;33.50;19.70;;;;;;;3.68;63.45;97625.22;5072018;28;20234;-70
2022/01/19 08:57:43;;;;;;;29.57;17.50;;;;;;;3.55;63.59;97629.53;5067346;28;20425;-72
2022/01/19 09:00:15;;;;;;;27.33;17.53;;;;;;;3.46;64.15;97625.75;5072292;28;20230;-70
2022/01/19 09:02:42;;;;;;;30.00;16.43;;;;;;;3.77;63.20;97626.41;5066934;28;20452;-72
2022/01/19 09:05:08;;;;;;;26.80;15.60;;;;;;;3.94;62.84;97624.44;5064507;28;20447;-71
2022/01/19 09:07:34;;;;;;;25.10;16.20;;;;;;;3.79;63.20;97632.28;5074157;28;20524;-71
2022/01/19 09:10:00;;;;;;;25.80;16.50;;;;;;;3.61;63.50;97630.91;5073892;28;20444;-71
2022/01/19 09:12:25;;;;;;;22.90;16.20;;;;;;;3.50;63.04;97626.38;5071751;28;20880;-71
2022/01/19 09:14:51;;;;;;;21.17;15.27;;;;;;;3.88;61.64;97632.66;5073059;28;20178;-73
2022/01/19 09:17:17;;;;;;;24.93;15.57;;;;;;;4.22;61.13;97623.44;5060892;28;20289;-71
2022/01/19 09:19:43;;;;;;;28.00;15.10;;;;;;;3.98;61.19;97631.94;5067436;28;20772;-71
2022/01/19 09:22:09;;;;;;;26.30;15.80;;;;;;;4.44;60.57;97625.44;5067355;28;20207;-71
2022/01/19 09:24:37;;;;;;;25.60;15.07;;;;;;;4.60;59.74;97627.00;5051543;28;20178;-70
2022/01/19 09:27:03;;;;;;;26.97;16.47;;;;;;;5.19;58.59;97629.00;5083174;28;20423;-72
2022/01/19 09:29:29;;;;;;;21.47;14.00;;;;;;;5.04;58.37;97633.50;5072267;28;20469;-71
2022/01/19 09:31:56;;;;;;;21.40;14.70;;;;;;;4.81;58.46;97626.47;5072230;28;20421;-71
2022/01/19 09:34:22;;;;;;;25.87;14.53;;;;;;;5.25;57.94;97622.56;5079481;28;20265;-73
2022/01/19 09:36:48;;;;;;;22.83;14.20;;;;;;;5.36;57.31;97620.03;5073725;28;20436;-72
2022/01/19 09:39:18;;;;;;;21.13;13.70;;;;;;;5.47;57.14;97615.81;5073209;28;21029;-72
2022/01/19 09:41:46;;;;;;;31.70;16.43;;;;;;;5.59;56.24;97609.72;5073055;28;20912;-71
2022/01/19 09:44:12;;;;;;;23.33;13.87;;;;;;;5.61;56.43;97607.84;5072717;28;20546;-71
2022/01/19 09:46:38;;;;;;;21.20;13.70;;;;;;;5.51;56.56;97610.28;5049618;28;20437;-71
2022/01/19 09:49:07;;;;;;;22.10;14.10;;;;;;;5.81;55.86;97608.16;5070079;28;20202;-70
2022/01/19 09:51:35;;;;;;;21.80;14.30;;;;;;;6.09;54.56;97607.00;5065826;28;20426;-71
2022/01/19 09:54:01;;;;;;;22.37;13.50;;;;;;;5.81;55.07;97605.56;5082557;28;20421;-71
2022/01/19 09:56:27;;;;;;;17.47;12.70;;;;;;;6.34;54.30;97599.97;5071088;28;20482;-71
2022/01/19 09:58:53;;;;;;;22.03;12.57;;;;;;;6.46;53.82;97598.19;5073067;28;20639;-72
2022/01/19 10:01:25;;;;;;;20.83;13.93;;;;;;;6.68;53.16;97596.56;5070963;28;20432;-71
2022/01/19 10:03:51;;;;;;;23.63;13.97;;;;;;;6.86;52.89;97589.91;5051259;28;20475;-71
2022/01/19 10:06:23;;;;;;;16.80;12.07;;;;;;;6.81;52.95;97581.63;5070947;28;20467;-71
2022/01/19 10:08:56;;;;;;;21.30;12.53;;;;;;;6.99;52.73;97581.13;5057078;28;20470;-73
2022/01/19 10:17:06;;;;;;;18.23;12.97;;;;;;;7.23;51.39;97560.13;5064395;28;20938;-71
2022/01/19 10:19:31;;;;;;;17.83;11.60;;;;;;;7.37;50.62;97556.41;5073509;28;20527;-69
2022/01/19 10:22:17;;;;;;;17.77;12.37;;;;;;;6.96;51.70;97550.09;5073306;28;20544;-72
2022/01/19 10:24:57;;;;;;;19.27;10.20;;;;;;;7.19;50.56;97537.84;5068620;28;20547;-69
2022/01/19 10:27:42;;;;;;;19.20;11.30;;;;;;;7.41;50.71;97525.69;5075068;28;20421;-72
2022/01/19 10:30:08;;;;;;;13.33;10.47;;;;;;;7.69;50.51;97529.47;5063934;28;20448;-70
2022/01/19 10:32:56;;;;;;;19.67;11.53;;;;;;;7.42;51.50;97516.91;5073819;28;20420;-71
2022/01/19 10:35:36;;;;;;;18.27;12.67;;;;;;;7.70;51.05;97510.25;5063546;28;20664;-72
2022/01/19 10:38:08;;;;;;;16.17;11.87;;;;;;;7.86;50.56;97509.00;5063365;28;20431;-70
2022/01/19 10:40:34;;;;;;;23.40;13.13;;;;;;;7.77;50.43;97506.22;5069494;28;20426;-70
2022/01/19 10:43:30;;;;;;;19.07;11.87;;;;;;;7.57;51.57;97497.41;5069147;28;20985;-71
2022/01/19 10:45:59;;;;;;;20.33;12.07;;;;;;;7.84;50.98;97502.13;5069836;28;20561;-71
2022/01/19 10:48:36;;;;;;;14.93;11.30;;;;;;;7.98;50.00;97500.13;5058044;28;20432;-72
2022/01/19 10:51:16;;;;;;;20.13;11.63;;;;;;;7.86;50.95;97493.34;5063551;28;20784;-70
2022/01/19 10:53:44;;;;;;;17.00;11.57;;;;;;;7.95;50.63;97496.00;5074450;28;20488;-71
2022/01/19 10:56:29;;;;;;;16.67;11.87;;;;;;;7.99;50.00;97493.97;5074007;28;20887;-71
2022/01/19 10:59:00;;;;;;;17.90;11.83;;;;;;;8.37;48.82;97481.25;5074813;28;20763;-71
2022/01/19 11:01:41;;;;;;;16.90;11.77;;;;;;;8.31;48.49;97482.59;5055593;28;20527;-70
2022/01/19 11:04:39;;;;;;;17.33;11.33;;;;;;;8.49;48.75;97477.59;5071146;28;20441;-71
2022/01/19 11:07:15;;;;;;;20.30;10.33;;;;;;;8.13;49.79;97485.81;5011621;28;21057;-72
2022/01/19 11:10:07;;;;;;;14.27;9.10;;;;;;;7.54;49.91;97471.56;5010155;28;20473;-71
2022/01/19 11:12:38;;;;;;;12.00;8.03;;;;;;;7.36;49.54;97476.53;5011782;28;20913;-70
2022/01/19 11:15:04;;;;;;;12.03;8.30;;;;;;;7.78;49.02;97468.72;5003980;28;20489;-71
2022/01/19 11:17:30;;;;;;;10.63;8.53;;;;;;;8.20;47.90;97472.22;5012488;28;20431;-73
2022/01/19 11:19:56;;;;;;;12.90;9.07;;;;;;;7.64;49.03;97474.25;4994615;28;20208;-72
2022/01/19 11:22:34;;;;;;;15.20;8.53;;;;;;;7.62;49.51;97465.72;5010126;28;20204;-71
2022/01/19 11:25:14;;;;;;;15.27;8.73;;;;;;;7.92;48.69;97466.75;4981743;28;20283;-72
2022/01/19 11:27:42;;;;;;;13.13;8.30;;;;;;;7.47;49.70;97460.81;5012863;28;20506;-71
2022/01/19 11:30:19;;;;;;;15.70;9.13;;;;;;;7.71;48.87;97451.09;5003562;28;20452;-70
2022/01/19 11:33:05;;;;;;;14.73;8.87;;;;;;;8.05;48.76;97443.88;4979769;28;20877;-70
2022/01/19 11:35:34;;;;;;;18.90;8.60;;;;;;;7.60;49.81;97436.31;5017518;28;20478;-72
2022/01/19 11:38:00;;;;;;;14.50;9.37;;;;;;;7.84;49.25;97439.50;4999492;28;20442;-71
2022/01/19 11:40:35;;;;;;;14.20;7.93;;;;;;;8.55;48.13;97427.41;5012357;28;20427;-70
2022/01/19 11:43:19;;;;;;;12.77;8.50;;;;;;;7.96;49.07;97431.56;5032373;28;20497;-71
2022/01/19 11:45:44;;;;;;;14.83;9.07;;;;;;;7.80;49.53;97432.91;5072273;28;20432;-70
2022/01/19 11:48:21;;;;;;;14.27;9.10;;;;;;;7.29;50.28;97431.06;5072352;28;20443;-69
2022/01/19 11:50:48;;;;;;;18.30;8.90;;;;;;;7.80;49.82;97432.91;5071923;28;20563;-71
2022/01/19 11:53:14;;;;;;;13.10;9.00;;;;;;;8.14;48.78;97429.19;5073525;28;20917;-71
2022/01/19 11:55:59;;;;;;;17.93;10.00;;;;;;;8.00;48.79;97422.53;5072282;28;20447;-73
2022/01/19 11:58:24;;;;;;;17.93;8.90;;;;;;;8.06;49.08;97416.81;5062876;28;20471;-71
2022/01/19 12:00:52;;;;;;;13.43;8.77;;;;;;;8.06;49.03;97421.19;5069148;28;20802;-69
2022/01/19 12:03:29;;;;;;;16.63;10.30;;;;;;;7.93;49.45;97413.59;5066780;28;20225;-71
2022/01/19 12:05:55;;;;;;;16.27;9.43;;;;;;;8.18;48.84;97408.88;5073035;28;20420;-71
2022/01/19 12:08:30;;;;;;;15.93;9.27;;;;;;;8.40;49.02;97400.00;5072327;28;20445;-69
2022/01/19 12:11:11;;;;;;;13.90;9.20;;;;;;;8.67;47.90;97394.19;5072769;28;20424;-71
2022/01/19 12:16:27;;;;;;;13.60;9.53;;;;;;;8.91;47.60;97390.34;5076737;28;20424;-70
2022/01/19 12:18:55;;;;;;;11.70;9.40;;;;;;;8.00;49.68;97393.81;5064520;28;20578;-70
2022/01/19 12:21:20;;;;;;;16.40;9.87;;;;;;;8.46;49.29;97392.44;5066739;28;20449;-70
2022/01/19 12:23:47;;;;;;;18.43;12.37;;;;;;;7.73;51.22;97395.22;5072469;28;20487;-70
2022/01/19 12:26:13;;;;;;;16.80;11.70;;;;;;;8.12;50.90;97392.78;5071075;28;20179;-70
2022/01/19 12:28:51;;;;;;;16.60;11.63;;;;;;;8.28;50.41;97400.09;5072560;28;20439;-69
2022/01/19 12:31:26;;;;;;;17.23;12.17;;;;;;;7.72;51.75;97403.19;5070816;28;20436;-71
2022/01/19 12:34:04;;;;;;;18.97;12.30;;;;;;;8.04;51.27;97395.22;5070090;28;20431;-70
2022/01/19 12:36:48;;;;;;;20.40;12.03;;;;;;;7.27;53.39;97412.09;5071477;28;20424;-70
2022/01/19 12:39:26;;;;;;;25.23;12.40;;;;;;;7.13;54.15;97408.84;5072406;28;20872;-70
2022/01/19 12:42:28;;;;;;;23.43;12.20;;;;;;;7.12;54.15;97404.56;5073302;28;20915;-70
2022/01/19 12:44:58;;;;;;;16.83;12.47;;;;;;;7.26;53.74;97403.44;5069582;28;20417;-72
2022/01/19 12:49:53;;;;;;;19.77;12.43;;;;;;;7.98;51.80;97398.34;5070514;28;20975;-70
2022/01/19 12:52:19;;;;;;;17.43;12.03;;;;;;;7.29;52.95;97400.59;5063786;28;20417;-71
2022/01/19 12:54:45;;;;;;;16.73;11.60;;;;;;;7.29;53.45;97402.38;5064240;28;20413;-71
2022/01/19 12:57:15;;;;;;;18.43;12.83;;;;;;;7.57;53.98;97400.06;5072655;28;20424;-71